Time;durP1;ratioP1;P1;durP2;ratioP2;P2;SDS_P1;SDS_P2;PMS_P1;PMS_P2;Temp;Humidity;BMP_temperature;BMP_pressure;BME280_temperature;BME280_humidity;BME280_pressure;Samples;Min_cycle;Max_cycle;Signal;HPM_P1;HPM_P2
2023/06/06 00:01:34;;;;;;;0.53;0.53;;;;;;;12.50;87.03;100733.63;4971997;28;20186;-73
2023/06/06 00:04:00;;;;;;;0.20;0.20;;;;;;;12.46;87.43;100735.41;4971891;28;20229;-74
2023/06/06 00:06:27;;;;;;;0.03;0.03;;;;;;;12.47;88.26;100732.34;4971916;28;20683;-74
2023/06/06 00:08:53;;;;;;;0.40;0.40;;;;;;;12.48;87.45;100733.94;4953908;28;20202;-74
2023/06/06 00:11:19;;;;;;;4.83;0.40;;;;;;;12.44;87.93;100734.88;4971758;28;20190;-74
2023/06/06 00:13:44;;;;;;;0.50;0.50;;;;;;;12.36;89.24;100732.94;4971625;28;20221;-74
2023/06/06 00:16:12;;;;;;;0.50;0.50;;;;;;;12.33;89.06;100733.56;4971567;28;20212;-73
2023/06/06 00:18:39;;;;;;;0.00;0.00;;;;;;;12.30;89.63;100745.97;4971103;28;20222;-74
2023/06/06 00:21:04;;;;;;;0.87;0.73;;;;;;;12.24;90.35;100743.66;4954396;28;20556;-74
2023/06/06 00:23:30;;;;;;;0.23;0.23;;;;;;;12.27;91.09;100743.84;4954290;28;20229;-73
2023/06/06 00:25:56;;;;;;;0.40;0.40;;;;;;;12.21;91.67;100743.19;4971549;28;20188;-73
2023/06/06 00:28:21;;;;;;;0.00;0.00;;;;;;;12.24;91.48;100744.47;4953814;28;20199;-73
2023/06/06 00:30:47;;;;;;;0.20;0.20;;;;;;;12.22;92.19;100749.47;4971627;28;20264;-74
2023/06/06 00:33:12;;;;;;;0.20;0.20;;;;;;;12.17;92.92;100746.88;4954126;28;20234;-74
2023/06/06 00:35:37;;;;;;;3.60;1.50;;;;;;;12.20;93.33;100746.22;4971638;28;20226;-72
2023/06/06 00:38:03;;;;;;;0.00;0.00;;;;;;;12.26;93.14;100749.63;4971217;28;20261;-74
2023/06/06 00:40:28;;;;;;;0.57;0.57;;;;;;;12.28;93.86;100752.88;4971446;28;20190;-73
2023/06/06 00:42:53;;;;;;;0.10;0.10;;;;;;;12.23;93.70;100759.28;4953838;28;20214;-74
2023/06/06 00:45:19;;;;;;;0.83;0.83;;;;;;;12.20;93.90;100763.47;4972038;28;20187;-73
2023/06/06 00:47:45;;;;;;;0.00;0.00;;;;;;;12.23;94.34;100753.00;4971448;28;20885;-74
2023/06/06 00:50:12;;;;;;;0.40;0.40;;;;;;;12.28;94.90;100752.88;4973604;28;20186;-73
2023/06/06 00:52:40;;;;;;;0.00;0.00;;;;;;;12.27;94.79;100760.28;4975058;28;20205;-74
2023/06/06 00:55:07;;;;;;;0.20;0.20;;;;;;;12.10;95.55;100757.44;4975003;28;20183;-74
2023/06/06 00:57:35;;;;;;;0.57;0.57;;;;;;;11.99;95.90;100753.34;4974799;28;20217;-73
2023/06/06 01:00:05;;;;;;;0.40;0.40;;;;;;;11.97;96.59;100756.41;4974595;28;20184;-72
2023/06/06 01:02:37;;;;;;;5.77;1.43;;;;;;;12.01;98.12;100760.16;4974888;28;20591;-74
2023/06/06 01:05:09;;;;;;;0.00;0.00;;;;;;;12.09;98.23;100766.78;4975031;28;20187;-74
2023/06/06 01:07:36;;;;;;;0.07;0.07;;;;;;;12.04;98.30;100756.78;4974669;28;20560;-73
2023/06/06 01:10:07;;;;;;;0.23;0.23;;;;;;;11.90;98.53;100758.78;4974308;28;20194;-73
2023/06/06 01:13:14;;;;;;;0.13;0.13;;;;;;;11.88;98.74;100756.38;4974696;28;20216;-74
2023/06/06 01:15:45;;;;;;;0.33;0.33;;;;;;;11.95;99.83;100755.09;4953726;28;20592;-74
2023/06/06 01:18:11;;;;;;;0.87;0.83;;;;;;;11.79;99.71;100749.22;4956716;28;20760;-73
2023/06/06 01:20:39;;;;;;;0.00;0.00;;;;;;;11.72;100.00;100755.09;4974535;28;20181;-74
2023/06/06 01:23:05;;;;;;;0.10;0.10;;;;;;;11.75;100.00;100754.47;4957200;28;20228;-74
2023/06/06 01:25:34;;;;;;;0.17;0.17;;;;;;;11.65;100.00;100743.75;4957238;28;20201;-74
2023/06/06 01:28:00;;;;;;;0.10;0.10;;;;;;;11.61;100.00;100751.00;4957068;28;20555;-74
2023/06/06 01:30:27;;;;;;;0.03;0.03;;;;;;;11.75;100.00;100754.47;4974224;28;20200;-74
2023/06/06 01:33:06;;;;;;;0.10;0.10;;;;;;;11.73;100.00;100747.69;4956661;28;20279;-74
2023/06/06 01:35:41;;;;;;;0.57;0.57;;;;;;;11.71;100.00;100753.47;4974500;28;20177;-74
2023/06/06 01:38:18;;;;;;;0.33;0.33;;;;;;;11.69;100.00;100755.69;4973625;28;20217;-72
2023/06/06 01:40:47;;;;;;;0.00;0.00;;;;;;;11.64;100.00;100750.38;4974290;28;20268;-74
2023/06/06 01:43:19;;;;;;;0.10;0.10;;;;;;;11.69;100.00;100750.22;4957046;28;20827;-74
2023/06/06 01:45:46;;;;;;;0.90;0.90;;;;;;;11.62;100.00;100750.69;4957340;28;20196;-74
2023/06/06 01:48:12;;;;;;;0.10;0.10;;;;;;;11.55;100.00;100747.53;4974053;28;20186;-74
2023/06/06 01:50:38;;;;;;;0.00;0.00;;;;;;;11.44;100.00;100753.59;4974048;28;20656;-74
2023/06/06 01:53:03;;;;;;;1.30;0.87;;;;;;;11.44;100.00;100757.13;4973876;28;20206;-74
2023/06/06 01:55:29;;;;;;;0.10;0.10;;;;;;;11.47;100.00;100759.25;4956636;28;20243;-74
2023/06/06 01:57:56;;;;;;;0.73;0.73;;;;;;;11.31;100.00;100756.06;4973693;28;20213;-74
2023/06/06 02:00:21;;;;;;;0.57;0.57;;;;;;;11.27;100.00;100752.31;4956125;28;20209;-74
2023/06/06 02:02:46;;;;;;;0.60;0.60;;;;;;;11.23;100.00;100753.25;4973749;28;20456;-74
2023/06/06 02:05:12;;;;;;;0.47;0.47;;;;;;;11.29;100.00;100749.28;4973819;28;20192;-74
2023/06/06 02:07:37;;;;;;;0.30;0.30;;;;;;;11.41;100.00;100751.44;4973629;28;20299;-74
2023/06/06 02:10:07;;;;;;;0.00;0.00;;;;;;;11.39;100.00;100749.03;4973362;28;20236;-74
2023/06/06 02:12:33;;;;;;;0.20;0.20;;;;;;;11.37;100.00;100755.94;4973671;28;20209;-74
2023/06/06 02:14:59;;;;;;;0.40;0.40;;;;;;;11.24;100.00;100761.13;4973665;28;20656;-74
2023/06/06 02:17:24;;;;;;;2.23;2.13;;;;;;;11.15;100.00;100763.00;4956232;28;20209;-74
2023/06/06 02:19:50;;;;;;;0.30;0.30;;;;;;;11.11;100.00;100763.91;4973098;28;20191;-74
2023/06/06 02:22:16;;;;;;;0.60;0.60;;;;;;;11.11;100.00;100756.50;4973338;28;20216;-74
2023/06/06 02:24:42;;;;;;;0.57;0.57;;;;;;;11.13;100.00;100764.41;4939988;28;20196;-75
2023/06/06 02:27:10;;;;;;;0.20;0.20;;;;;;;11.07;100.00;100758.25;4973312;28;20308;-74
2023/06/06 02:29:36;;;;;;;0.30;0.30;;;;;;;11.05;100.00;100755.00;4955519;28;20205;-74
2023/06/06 02:32:03;;;;;;;0.30;0.30;;;;;;;11.24;100.00;100758.41;4973060;28;20200;-74
2023/06/06 02:34:28;;;;;;;0.10;0.10;;;;;;;11.14;100.00;100757.81;4973342;28;20645;-75
2023/06/06 02:36:54;;;;;;;0.10;0.10;;;;;;;11.05;100.00;100763.22;4972989;28;20191;-74
2023/06/06 02:39:21;;;;;;;0.47;0.47;;;;;;;11.03;100.00;100763.53;4955334;28;20200;-74
2023/06/06 02:41:46;;;;;;;1.30;1.20;;;;;;;10.93;100.00;100765.66;4973016;28;20244;-74
2023/06/06 02:44:11;;;;;;;0.90;0.90;;;;;;;10.87;100.00;100769.63;4973210;28;20205;-74
2023/06/06 02:46:37;;;;;;;0.07;0.07;;;;;;;10.88;100.00;100768.50;4973151;28;20194;-73
2023/06/06 02:49:02;;;;;;;3.30;0.97;;;;;;;10.90;100.00;100758.88;4955198;28;20294;-74
2023/06/06 02:51:28;;;;;;;0.83;0.83;;;;;;;10.98;100.00;100755.41;4972604;28;20190;-74
2023/06/06 02:53:53;;;;;;;1.00;1.00;;;;;;;10.88;100.00;100768.50;4955509;28;20619;-74
2023/06/06 02:56:19;;;;;;;0.30;0.30;;;;;;;10.78;100.00;100765.97;4973036;28;20579;-74
2023/06/06 02:58:44;;;;;;;0.20;0.20;;;;;;;10.86;100.00;100766.06;4972201;28;20217;-74
2023/06/06 03:01:14;;;;;;;0.30;0.30;;;;;;;10.93;100.00;100765.66;4972849;28;20211;-73
2023/06/06 03:03:40;;;;;;;0.57;0.57;;;;;;;10.94;100.00;100761.81;4972595;28;20202;-74
2023/06/06 03:06:06;;;;;;;0.80;0.80;;;;;;;10.90;100.00;100769.81;4972726;28;20615;-74
2023/06/06 03:08:38;;;;;;;0.17;0.17;;;;;;;10.86;100.00;100768.00;4971765;28;20571;-73
2023/06/06 03:11:03;;;;;;;0.30;0.30;;;;;;;10.80;100.00;100764.56;4972584;28;20203;-74
2023/06/06 03:13:28;;;;;;;0.50;0.50;;;;;;;10.78;100.00;100763.25;4954784;28;20743;-74
2023/06/06 03:15:54;;;;;;;0.00;0.00;;;;;;;10.81;100.00;100768.91;4955170;28;20240;-74
2023/06/06 03:18:20;;;;;;;0.30;0.30;;;;;;;10.80;100.00;100771.94;4971976;28;20270;-74
2023/06/06 03:20:51;;;;;;;0.20;0.20;;;;;;;10.86;100.00;100766.06;4972354;28;20543;-74
2023/06/06 03:23:17;;;;;;;0.57;0.57;;;;;;;10.82;100.00;100770.50;4954875;28;20272;-74
2023/06/06 03:25:43;;;;;;;0.00;0.00;;;;;;;10.84;100.00;100770.22;4972511;28;20186;-74
2023/06/06 03:28:12;;;;;;;0.43;0.43;;;;;;;10.84;100.00;100773.75;4972134;28;20186;-74
2023/06/06 03:30:38;;;;;;;0.20;0.20;;;;;;;10.82;100.00;100773.25;4955213;28;20250;-74
2023/06/06 03:33:06;;;;;;;0.23;0.23;;;;;;;10.87;100.00;100773.16;4972330;28;20221;-74
2023/06/06 03:35:33;;;;;;;0.13;0.13;;;;;;;10.93;100.00;100773.84;4955151;28;20194;-74
2023/06/06 03:37:59;;;;;;;0.10;0.10;;;;;;;10.92;100.00;100773.03;4972374;28;20218;-75
2023/06/06 03:40:25;;;;;;;0.00;0.00;;;;;;;10.93;100.00;100774.66;4971942;28;20212;-74
2023/06/06 03:42:50;;;;;;;0.47;0.47;;;;;;;10.97;100.00;100781.13;4972004;28;20288;-74
2023/06/06 03:45:17;;;;;;;0.13;0.13;;;;;;;11.07;100.00;100788.31;4972143;28;20185;-74
2023/06/06 03:47:42;;;;;;;1.23;0.77;;;;;;;11.09;100.00;100786.09;4971916;28;20310;-74
2023/06/06 03:50:08;;;;;;;0.20;0.20;;;;;;;11.10;100.00;100774.03;4971614;28;20197;-74
2023/06/06 03:52:33;;;;;;;0.63;0.63;;;;;;;11.12;100.00;100776.44;4971829;28;20208;-73
2023/06/06 03:54:58;;;;;;;0.17;0.17;;;;;;;11.11;100.00;100789.31;4972038;28;20743;-74
2023/06/06 03:57:24;;;;;;;0.37;0.37;;;;;;;11.15;100.00;100786.81;4971720;28;20680;-73
2023/06/06 03:59:50;;;;;;;1.33;0.90;;;;;;;11.17;100.00;100781.81;4971548;28;20276;-74
2023/06/06 04:02:17;;;;;;;0.00;0.00;;;;;;;11.14;100.00;100791.47;4954499;28;20248;-74
2023/06/06 04:04:43;;;;;;;0.00;0.00;;;;;;;11.23;100.00;100799.72;4971814;28;20185;-75
2023/06/06 04:07:08;;;;;;;0.73;0.73;;;;;;;11.25;100.00;100801.03;4954401;28;20192;-74
2023/06/06 04:09:33;;;;;;;0.00;0.00;;;;;;;11.21;100.00;100789.09;4954175;28;20276;-74
2023/06/06 04:11:59;;;;;;;0.17;0.17;;;;;;;11.19;100.00;100799.53;4954611;28;20182;-74
2023/06/06 04:14:24;;;;;;;0.53;0.53;;;;;;;11.15;100.00;100800.47;4971936;28;20181;-75
2023/06/06 04:16:50;;;;;;;0.20;0.20;;;;;;;11.16;100.00;100804.81;4954469;28;20202;-74
2023/06/06 04:19:15;;;;;;;0.53;0.50;;;;;;;11.17;100.00;100800.97;4953729;28;20237;-73
2023/06/06 04:21:40;;;;;;;0.77;0.77;;;;;;;11.14;100.00;100801.56;4954310;28;20672;-74
2023/06/06 04:24:05;;;;;;;0.90;0.63;;;;;;;11.13;100.00;100800.75;4955363;28;20205;-74
2023/06/06 04:26:31;;;;;;;0.80;0.80;;;;;;;11.17;100.00;100798.25;4975593;28;20201;-73
2023/06/06 04:29:02;;;;;;;0.93;0.93;;;;;;;11.22;100.00;100806.31;4975084;28;20192;-75
2023/06/06 04:31:29;;;;;;;1.13;0.97;;;;;;;11.25;100.00;100814.72;4975524;28;20332;-73
2023/06/06 04:34:00;;;;;;;0.30;0.30;;;;;;;11.31;100.00;100802.56;4975041;28;20217;-75
2023/06/06 04:36:26;;;;;;;1.80;0.80;;;;;;;11.36;100.00;100807.09;4975195;28;20197;-73
2023/06/06 04:38:52;;;;;;;4.00;1.20;;;;;;;11.41;100.00;100801.50;4957351;28;20638;-74
2023/06/06 04:41:22;;;;;;;3.03;0.60;;;;;;;11.44;100.00;100809.13;4975369;28;20188;-75
2023/06/06 04:43:51;;;;;;;0.13;0.13;;;;;;;11.48;100.00;100809.31;4975129;28;20206;-75
2023/06/06 04:46:21;;;;;;;0.03;0.03;;;;;;;11.54;100.00;100808.88;4975256;28;20193;-73
2023/06/06 04:48:59;;;;;;;0.30;0.30;;;;;;;11.60;100.00;100813.13;4974378;28;20196;-74
2023/06/06 04:51:29;;;;;;;2.00;1.83;;;;;;;11.71;100.00;100818.34;4975181;28;20193;-75
2023/06/06 04:54:03;;;;;;;0.00;0.00;;;;;;;11.79;100.00;100826.66;4957654;28;20209;-74
2023/06/06 04:56:29;;;;;;;6.43;2.83;;;;;;;11.91;100.00;100818.72;4975056;28;20186;-75
2023/06/06 04:59:05;;;;;;;3.30;1.40;;;;;;;12.03;100.00;100812.69;4974319;28;20201;-74
2023/06/06 05:01:31;;;;;;;0.33;0.33;;;;;;;12.03;100.00;100806.41;4975056;28;20180;-75
2023/06/06 05:03:56;;;;;;;0.00;0.00;;;;;;;12.16;100.00;100809.06;4974810;28;20217;-74
2023/06/06 05:06:22;;;;;;;1.13;1.13;;;;;;;12.29;100.00;100812.81;4957606;28;20607;-75
2023/06/06 05:08:48;;;;;;;0.00;0.00;;;;;;;12.41;100.00;100818.53;4974543;28;20260;-75
2023/06/06 05:11:13;;;;;;;0.33;0.33;;;;;;;12.55;100.00;100814.91;4974779;28;20240;-73
2023/06/06 05:13:39;;;;;;;0.33;0.33;;;;;;;12.69;100.00;100810.13;4974520;28;20237;-75
2023/06/06 05:16:05;;;;;;;0.03;0.03;;;;;;;12.88;100.00;100809.88;4957474;28;20277;-74
2023/06/06 05:18:31;;;;;;;0.83;0.83;;;;;;;12.97;100.00;100806.03;4974131;28;20282;-75
2023/06/06 05:21:02;;;;;;;0.50;0.50;;;;;;;13.15;100.00;100814.28;4974520;28;20659;-74
2023/06/06 05:23:28;;;;;;;0.33;0.33;;;;;;;13.25;100.00;100817.56;4957401;28;20594;-75
2023/06/06 05:25:56;;;;;;;1.40;1.20;;;;;;;13.39;100.00;100823.75;4974522;28;20189;-75
2023/06/06 05:28:24;;;;;;;0.30;0.30;;;;;;;13.50;100.00;100821.50;4957693;28;20197;-75
2023/06/06 05:30:52;;;;;;;0.43;0.43;;;;;;;13.59;100.00;100821.47;4974237;28;20193;-75
2023/06/06 05:33:18;;;;;;;0.00;0.00;;;;;;;13.65;100.00;100821.03;4974249;28;20268;-75
2023/06/06 05:35:46;;;;;;;0.07;0.07;;;;;;;13.69;100.00;100832.16;4949250;28;20182;-76
2023/06/06 05:38:12;;;;;;;1.43;1.00;;;;;;;13.72;100.00;100819.72;4973918;28;20202;-76
2023/06/06 05:40:37;;;;;;;0.73;0.73;;;;;;;13.78;100.00;100826.69;4974075;28;20259;-76
2023/06/06 05:43:03;;;;;;;3.47;1.73;;;;;;;13.80;100.00;100829.91;4957201;28;20205;-76
2023/06/06 05:45:28;;;;;;;0.63;0.63;;;;;;;13.80;100.00;100827.16;4940773;28;20547;-76
2023/06/06 05:47:54;;;;;;;1.27;1.17;;;;;;;13.84;100.00;100828.94;4954744;28;20196;-76
2023/06/06 05:50:19;;;;;;;0.00;0.00;;;;;;;13.86;100.00;100825.84;4956807;28;20270;-76
2023/06/06 05:52:45;;;;;;;0.00;0.00;;;;;;;14.06;100.00;100835.38;4948139;28;20221;-76
2023/06/06 05:55:26;;;;;;;0.60;0.57;;;;;;;14.09;99.86;100830.03;4956639;28;20198;-76
2023/06/06 05:57:51;;;;;;;0.00;0.00;;;;;;;14.25;98.68;100827.59;4940575;28;20572;-76
2023/06/06 06:00:17;;;;;;;0.00;0.00;;;;;;;14.30;97.60;100830.16;4973598;28;20192;-76
2023/06/06 06:02:43;;;;;;;0.00;0.00;;;;;;;14.41;96.53;100833.38;4966125;28;20198;-80
2023/06/06 06:05:09;;;;;;;0.43;0.40;;;;;;;14.55;95.24;100826.56;4974263;28;20212;-76
2023/06/06 06:07:34;;;;;;;0.30;0.30;;;;;;;14.62;93.10;100819.78;4973632;28;20539;-76
2023/06/06 06:10:02;;;;;;;0.00;0.00;;;;;;;14.68;90.98;100815.69;4973713;28;20224;-76
2023/06/06 06:12:27;;;;;;;0.90;0.63;;;;;;;14.70;89.37;100814.22;4973799;28;20260;-76
2023/06/06 06:14:53;;;;;;;0.50;0.50;;;;;;;14.69;88.39;100814.56;4974003;28;20264;-76
2023/06/06 06:17:20;;;;;;;0.23;0.23;;;;;;;14.84;88.84;100823.06;4956421;28;20190;-76
2023/06/06 06:19:45;;;;;;;0.80;0.80;;;;;;;14.85;86.12;100815.59;4956089;28;20259;-76
2023/06/06 06:22:11;;;;;;;0.10;0.10;;;;;;;15.11;84.91;100821.78;4956065;28;20297;-76
2023/06/06 06:24:36;;;;;;;0.00;0.00;;;;;;;15.23;84.70;100826.59;4973497;28;20186;-74
2023/06/06 06:27:02;;;;;;;0.00;0.00;;;;;;;15.26;83.06;100823.16;4973476;28;20225;-76
2023/06/06 06:29:27;;;;;;;0.57;0.57;;;;;;;15.51;83.78;100834.34;4973071;28;20185;-76
2023/06/06 06:31:52;;;;;;;0.10;0.10;;;;;;;15.46;82.40;100827.88;4972850;28;20190;-76
2023/06/06 06:34:18;;;;;;;0.13;0.13;;;;;;;15.54;81.67;100823.44;4956096;28;20724;-76
2023/06/06 06:36:43;;;;;;;0.00;0.00;;;;;;;15.65;80.76;100824.69;4957045;28;20190;-76
2023/06/06 06:39:09;;;;;;;0.83;0.83;;;;;;;15.59;80.33;100825.19;4955232;28;20750;-76
2023/06/06 06:41:35;;;;;;;0.10;0.10;;;;;;;15.48;80.32;100828.38;4973231;28;20656;-76
2023/06/06 06:44:00;;;;;;;0.00;0.00;;;;;;;15.58;81.59;100829.91;4970754;28;20562;-76
2023/06/06 06:46:25;;;;;;;0.33;0.33;;;;;;;15.60;81.02;100826.84;4972343;28;20245;-75
2023/06/06 06:48:51;;;;;;;0.27;0.27;;;;;;;15.53;79.55;100810.03;4972412;28;20213;-76
2023/06/06 06:51:19;;;;;;;0.00;0.00;;;;;;;15.63;81.15;100820.69;4973133;28;20177;-76
2023/06/06 06:53:44;;;;;;;0.00;0.00;;;;;;;15.81;81.09;100826.84;4939141;28;20218;-76
2023/06/06 06:56:10;;;;;;;0.67;0.33;;;;;;;15.76;79.54;100823.13;4972811;28;20216;-76
2023/06/06 06:58:37;;;;;;;0.00;0.00;;;;;;;16.13;79.67;100842.59;4955058;28;20222;-76
2023/06/06 07:01:03;;;;;;;0.10;0.10;;;;;;;16.00;77.71;100825.19;4955807;28;20192;-76
2023/06/06 07:03:29;;;;;;;0.00;0.00;;;;;;;16.15;79.32;100837.53;4955267;28;20209;-76
2023/06/06 07:05:55;;;;;;;0.00;0.00;;;;;;;16.30;79.25;100839.66;4972775;28;20182;-76
2023/06/06 07:08:20;;;;;;;0.00;0.00;;;;;;;16.28;77.94;100825.41;4972050;28;20204;-75
2023/06/06 07:10:46;;;;;;;0.00;0.00;;;;;;;16.16;77.59;100821.81;4972695;28;20680;-76
2023/06/06 07:13:13;;;;;;;0.10;0.10;;;;;;;16.12;77.82;100829.97;4972722;28;20209;-76
2023/06/06 07:15:38;;;;;;;0.20;0.20;;;;;;;16.09;77.62;100835.34;4972443;28;20205;-74
2023/06/06 07:18:04;;;;;;;0.00;0.00;;;;;;;16.04;77.91;100837.16;4972509;28;20561;-76
2023/06/06 07:20:30;;;;;;;0.00;0.00;;;;;;;16.24;78.97;100854.00;4972580;28;20232;-76
2023/06/06 07:22:56;;;;;;;0.00;0.00;;;;;;;16.34;79.01;100854.38;4972240;28;20599;-76
2023/06/06 07:25:22;;;;;;;0.00;0.00;;;;;;;16.37;78.87;100855.66;4972513;28;20189;-76
2023/06/06 07:27:48;;;;;;;0.03;0.03;;;;;;;16.32;78.07;100839.31;4955403;28;20211;-76
2023/06/06 07:30:14;;;;;;;1.33;1.17;;;;;;;16.17;76.88;100843.53;4954771;28;20667;-75
2023/06/06 07:32:45;;;;;;;0.17;0.17;;;;;;;16.09;77.49;100841.66;4971853;28;20225;-74
2023/06/06 07:35:11;;;;;;;0.00;0.00;;;;;;;16.25;77.07;100834.38;4972555;28;20178;-75
2023/06/06 07:37:37;;;;;;;0.57;0.57;;;;;;;16.28;76.60;100832.88;4972204;28;20209;-76
2023/06/06 07:40:11;;;;;;;0.17;0.17;;;;;;;16.22;76.01;100828.75;4971984;28;20190;-76
2023/06/06 07:42:37;;;;;;;0.00;0.00;;;;;;;16.45;76.81;100840.16;4971942;28;20210;-76
2023/06/06 07:45:03;;;;;;;0.20;0.20;;;;;;;16.38;75.86;100837.16;4972182;28;20674;-76
2023/06/06 07:47:29;;;;;;;0.20;0.17;;;;;;;16.45;75.74;100837.41;4972142;28;20192;-76
2023/06/06 07:49:54;;;;;;;0.00;0.00;;;;;;;16.54;76.38;100840.88;4971714;28;20190;-76
2023/06/06 07:52:20;;;;;;;0.30;0.30;;;;;;;16.65;76.39;100848.38;4972317;28;20729;-76
2023/06/06 07:54:46;;;;;;;0.00;0.00;;;;;;;16.77;76.22;100836.56;4971948;28;20956;-77
2023/06/06 07:57:15;;;;;;;0.00;0.00;;;;;;;16.80;74.79;100838.66;4972250;28;20190;-76
2023/06/06 07:59:44;;;;;;;0.40;0.40;;;;;;;16.87;74.38;100847.16;4971910;28;20264;-76
2023/06/06 08:02:14;;;;;;;0.00;0.00;;;;;;;17.09;74.86;100845.09;4972343;28;20236;-77
2023/06/06 08:04:41;;;;;;;0.53;0.43;;;;;;;16.91;73.31;100830.72;4972183;28;20265;-76
2023/06/06 08:07:06;;;;;;;0.10;0.10;;;;;;;17.05;72.49;100827.59;4939322;28;20288;-77
2023/06/06 08:09:32;;;;;;;0.97;0.97;;;;;;;16.92;70.91;100826.78;4966860;28;20236;-77
2023/06/06 08:11:57;;;;;;;0.43;0.43;;;;;;;17.07;71.96;100834.41;4966003;28;20231;-76
2023/06/06 08:14:23;;;;;;;0.00;0.00;;;;;;;17.13;72.28;100837.75;4972959;28;20181;-76
2023/06/06 08:16:49;;;;;;;0.57;0.57;;;;;;;17.22;72.77;100841.19;4973392;28;20217;-77
2023/06/06 08:19:14;;;;;;;0.00;0.00;;;;;;;17.32;73.50;100850.94;4972469;28;20241;-76
2023/06/06 08:21:39;;;;;;;0.00;0.00;;;;;;;17.43;72.38;100841.84;4972072;28;20269;-82
2023/06/06 08:24:05;;;;;;;0.00;0.00;;;;;;;17.59;72.61;100841.13;4955146;28;20594;-81
2023/06/06 08:26:30;;;;;;;0.10;0.10;;;;;;;17.71;71.41;100839.16;4964084;28;20236;-82
2023/06/06 08:28:56;;;;;;;0.53;0.53;;;;;;;17.58;71.81;100831.22;4954882;28;20209;-76
2023/06/06 08:31:23;;;;;;;0.77;0.50;;;;;;;17.45;70.59;100833.22;4971864;28;20189;-76
2023/06/06 08:33:49;;;;;;;0.00;0.00;;;;;;;17.52;70.39;100825.16;4971796;28;20213;-78
2023/06/06 08:36:15;;;;;;;0.20;0.20;;;;;;;17.74;70.56;100835.69;4971878;28;20550;-76
2023/06/06 08:38:43;;;;;;;0.00;0.00;;;;;;;17.74;69.84;100832.94;4954183;28;20206;-76
2023/06/06 08:41:11;;;;;;;0.20;0.20;;;;;;;17.76;70.64;100843.63;4974094;28;20182;-81
2023/06/06 08:43:39;;;;;;;0.60;0.40;;;;;;;17.64;68.69;100825.09;4954322;28;20252;-78
2023/06/06 08:46:05;;;;;;;0.53;0.53;;;;;;;17.66;70.95;100835.81;4973103;28;20746;-76
2023/06/06 08:48:33;;;;;;;0.00;0.00;;;;;;;17.80;70.17;100836.28;4955384;28;20183;-75
2023/06/06 08:51:01;;;;;;;1.27;1.17;;;;;;;17.76;70.35;100832.59;4955995;28;20194;-77
2023/06/06 08:53:27;;;;;;;0.53;0.53;;;;;;;17.65;69.96;100829.50;4955090;28;20202;-76
2023/06/06 08:55:57;;;;;;;0.73;0.43;;;;;;;17.66;70.91;100838.59;4955057;28;20683;-75
2023/06/06 08:58:23;;;;;;;0.90;0.90;;;;;;;17.95;71.20;100843.81;4971140;28;20197;-77
2023/06/06 09:00:49;;;;;;;0.60;0.60;;;;;;;18.04;71.27;100843.66;4971898;28;20722;-77
2023/06/06 09:03:17;;;;;;;0.27;0.27;;;;;;;18.11;72.03;100839.16;4971883;28;20202;-76
2023/06/06 09:05:43;;;;;;;0.00;0.00;;;;;;;18.10;69.87;100836.75;4973164;28;20182;-77
2023/06/06 09:08:08;;;;;;;0.20;0.20;;;;;;;17.98;70.02;100837.59;4955378;28;20213;-77
2023/06/06 09:10:34;;;;;;;0.13;0.13;;;;;;;18.17;70.82;100831.38;4974294;28;20189;-76
2023/06/06 09:12:59;;;;;;;0.00;0.00;;;;;;;18.11;70.30;100833.63;4958943;28;20284;-77
2023/06/06 09:15:27;;;;;;;0.00;0.00;;;;;;;18.10;69.92;100836.75;4968742;28;20236;-77
2023/06/06 09:17:54;;;;;;;0.00;0.00;;;;;;;18.35;70.39;100827.13;4944160;28;20210;-77
2023/06/06 09:20:19;;;;;;;0.57;0.57;;;;;;;18.11;69.97;100841.09;4977164;28;20197;-77
2023/06/06 09:22:49;;;;;;;0.00;0.00;;;;;;;18.31;70.11;100836.50;4976927;28;20205;-77
2023/06/06 09:25:21;;;;;;;0.00;0.00;;;;;;;18.56;69.73;100826.91;4977609;28;20182;-77
2023/06/06 09:27:48;;;;;;;0.00;0.00;;;;;;;18.89;71.03;100842.38;4977117;28;20190;-77
2023/06/06 09:30:20;;;;;;;0.10;0.10;;;;;;;18.93;68.93;100834.97;4959859;28;20261;-77
2023/06/06 09:32:46;;;;;;;0.00;0.00;;;;;;;18.93;68.25;100829.44;4977369;28;20244;-77
2023/06/06 09:35:15;;;;;;;0.20;0.20;;;;;;;19.16;69.78;100848.97;4977684;28;20201;-77
2023/06/06 09:37:40;;;;;;;0.00;0.00;;;;;;;19.25;68.40;100831.00;4960445;28;20201;-77
2023/06/06 09:40:12;;;;;;;27.60;0.67;;;;;;;19.15;69.29;100828.00;4976935;28;20193;-77
2023/06/06 09:42:40;;;;;;;0.00;0.00;;;;;;;19.24;68.38;100831.34;4976763;28;20198;-77
2023/06/06 09:45:11;;;;;;;0.00;0.00;;;;;;;19.25;67.85;100830.22;4960582;28;20746;-77
2023/06/06 09:47:41;;;;;;;0.30;0.30;;;;;;;19.44;66.82;100832.22;4960148;28;20210;-75
2023/06/06 09:50:07;;;;;;;0.00;0.00;;;;;;;19.61;67.36;100840.94;4976716;28;20274;-77
2023/06/06 09:52:33;;;;;;;1.93;1.10;;;;;;;19.49;67.23;100829.16;4977128;28;20205;-77
2023/06/06 09:54:59;;;;;;;1.00;1.00;;;;;;;19.37;66.17;100826.50;4977514;28;20182;-77
2023/06/06 09:57:26;;;;;;;0.00;0.00;;;;;;;19.37;66.02;100832.84;4976404;28;20182;-77
2023/06/06 09:59:53;;;;;;;0.00;0.00;;;;;;;19.64;66.49;100830.28;4976012;28;20218;-77
2023/06/06 10:02:22;;;;;;;0.07;0.07;;;;;;;19.68;66.66;100836.75;4976827;28;20629;-77
2023/06/06 10:04:48;;;;;;;0.00;0.00;;;;;;;19.86;66.61;100829.59;4959034;28;20285;-75
2023/06/06 10:07:14;;;;;;;0.00;0.00;;;;;;;19.85;66.02;100834.34;4975766;28;20214;-77
2023/06/06 10:09:41;;;;;;;0.00;0.00;;;;;;;20.07;66.18;100835.56;4976081;28;20707;-76
2023/06/06 10:12:08;;;;;;;0.00;0.00;;;;;;;20.21;66.47;100838.63;4976344;28;20189;-76
2023/06/06 10:14:35;;;;;;;0.00;0.00;;;;;;;20.32;66.62;100838.03;4977187;28;20811;-77
2023/06/06 10:17:01;;;;;;;0.00;0.00;;;;;;;20.34;66.24;100830.94;4958869;28;20196;-77
2023/06/06 10:19:26;;;;;;;0.00;0.00;;;;;;;20.40;65.40;100832.25;4959351;28;20214;-75
2023/06/06 10:21:52;;;;;;;0.30;0.30;;;;;;;20.38;65.25;100831.78;4958419;28;20187;-77
2023/06/06 10:24:18;;;;;;;0.27;0.27;;;;;;;20.25;65.14;100832.31;4975389;28;20677;-77
2023/06/06 10:27:02;;;;;;;3.70;0.53;;;;;;;19.87;65.13;100823.69;4958508;28;20186;-77
2023/06/06 10:29:57;;;;;;;0.00;0.00;;;;;;;19.75;64.36;100809.94;4958046;28;20188;-77
2023/06/06 10:32:47;;;;;;;0.00;0.00;;;;;;;20.03;66.12;100831.91;4975002;28;20308;-77
2023/06/06 10:35:14;;;;;;;0.30;0.30;;;;;;;19.76;64.88;100819.88;4974618;28;20645;-76
2023/06/06 10:37:41;;;;;;;0.00;0.00;;;;;;;19.85;66.53;100830.75;4975649;28;20198;-77
2023/06/06 10:40:10;;;;;;;0.00;0.00;;;;;;;20.25;66.11;100832.31;4975558;28;20191;-77
2023/06/06 10:42:40;;;;;;;0.00;0.00;;;;;;;20.48;64.81;100822.09;4976097;28;20263;-76
2023/06/06 10:45:09;;;;;;;0.00;0.00;;;;;;;20.63;64.99;100821.16;4975742;28;20186;-75
2023/06/06 10:47:38;;;;;;;0.13;0.13;;;;;;;20.72;64.58;100824.50;4976371;28;20178;-77
2023/06/06 10:50:12;;;;;;;0.00;0.00;;;;;;;20.61;64.74;100817.97;4976461;28;20191;-77
2023/06/06 10:52:49;;;;;;;0.13;0.13;;;;;;;20.38;64.80;100812.34;4975847;28;20205;-77
2023/06/06 10:55:14;;;;;;;0.00;0.00;;;;;;;20.07;65.66;100818.91;4959033;28;20258;-77
2023/06/06 10:57:52;;;;;;;0.10;0.10;;;;;;;20.59;65.23;100823.09;4976195;28;20208;-75
2023/06/06 11:00:22;;;;;;;0.00;0.00;;;;;;;20.80;63.64;100812.34;4975367;28;20680;-77
2023/06/06 11:02:47;;;;;;;0.73;0.73;;;;;;;20.83;63.59;100807.19;4975413;28;20213;-77
2023/06/06 11:05:12;;;;;;;1.10;1.00;;;;;;;20.74;63.63;100808.28;4975620;28;20183;-77
2023/06/06 11:07:39;;;;;;;0.00;0.00;;;;;;;20.77;64.11;100810.31;4957936;28;20188;-77
2023/06/06 11:10:05;;;;;;;1.17;1.10;;;;;;;20.88;63.46;100812.47;4974975;28;20181;-76
2023/06/06 11:12:32;;;;;;;0.30;0.30;;;;;;;20.84;64.23;100808.84;4957251;28;20214;-78
2023/06/06 11:15:07;;;;;;;0.00;0.00;;;;;;;20.87;63.01;100800.56;4974054;28;20180;-78
2023/06/06 11:17:43;;;;;;;0.20;0.10;;;;;;;20.79;62.11;100804.38;4974085;28;20637;-76
2023/06/06 11:20:17;;;;;;;0.20;0.20;;;;;;;20.70;61.48;100798.28;4966488;28;20174;-76
2023/06/06 11:22:51;;;;;;;0.17;0.17;;;;;;;20.34;61.57;100786.53;4956560;28;20570;-75